sensor_id;sensor_type;location;lat;lon;timestamp;temperature;humidity
851;DHT22;412;51.400;7.480;2022-12-07T00:01:39;8.70;99.90
851;DHT22;412;51.400;7.480;2022-12-07T00:04:08;8.70;99.90
851;DHT22;412;51.400;7.480;2022-12-07T00:06:37;8.60;99.90
851;DHT22;412;51.400;7.480;2022-12-07T00:09:04;8.60;99.90
851;DHT22;412;51.400;7.480;2022-12-07T00:11:31;8.60;99.90
851;DHT22;412;51.400;7.480;2022-12-07T00:14:00;8.70;99.90
851;DHT22;412;51.400;7.480;2022-12-07T00:16:28;8.80;99.90
851;DHT22;412;51.400;7.480;2022-12-07T00:18:55;8.70;99.90
851;DHT22;412;51.400;7.480;2022-12-07T00:21:26;8.80;99.90
851;DHT22;412;51.400;7.480;2022-12-07T00:23:53;8.70;99.90
851;DHT22;412;51.400;7.480;2022-12-07T00:26:21;8.80;99.90
851;DHT22;412;51.400;7.480;2022-12-07T00:28:50;8.80;99.90
851;DHT22;412;51.400;7.480;2022-12-07T00:31:17;8.80;99.90
851;DHT22;412;51.400;7.480;2022-12-07T00:33:44;8.80;99.90
851;DHT22;412;51.400;7.480;2022-12-07T00:36:13;8.80;99.90
851;DHT22;412;51.400;7.480;2022-12-07T00:38:39;8.90;99.90
851;DHT22;412;51.400;7.480;2022-12-07T00:41:08;8.90;99.90
851;DHT22;412;51.400;7.480;2022-12-07T00:43:34;8.90;99.90
851;DHT22;412;51.400;7.480;2022-12-07T00:46:00;8.90;99.90
851;DHT22;412;51.400;7.480;2022-12-07T00:48:26;8.80;99.90
851;DHT22;412;51.400;7.480;2022-12-07T00:50:52;8.90;99.90
851;DHT22;412;51.400;7.480;2022-12-07T00:53:18;8.90;99.90
851;DHT22;412;51.400;7.480;2022-12-07T00:55:44;8.90;99.90
851;DHT22;412;51.400;7.480;2022-12-07T00:58:10;8.90;99.90
851;DHT22;412;51.400;7.480;2022-12-07T01:00:37;8.90;99.90
851;DHT22;412;51.400;7.480;2022-12-07T01:03:04;9.00;99.90
851;DHT22;412;51.400;7.480;2022-12-07T01:05:30;9.00;99.90
851;DHT22;412;51.400;7.480;2022-12-07T01:07:55;9.00;99.90
851;DHT22;412;51.400;7.480;2022-12-07T01:10:22;9.00;99.90
851;DHT22;412;51.400;7.480;2022-12-07T01:12:48;8.90;99.90
851;DHT22;412;51.400;7.480;2022-12-07T01:15:14;8.90;99.90
851;DHT22;412;51.400;7.480;2022-12-07T01:17:39;8.90;99.90
851;DHT22;412;51.400;7.480;2022-12-07T01:20:06;9.00;99.90
851;DHT22;412;51.400;7.480;2022-12-07T01:22:39;8.90;99.90
851;DHT22;412;51.400;7.480;2022-12-07T01:25:06;9.00;99.90
851;DHT22;412;51.400;7.480;2022-12-07T01:27:33;8.90;99.90
851;DHT22;412;51.400;7.480;2022-12-07T01:29:59;9.00;99.90
851;DHT22;412;51.400;7.480;2022-12-07T01:32:25;9.00;99.90
851;DHT22;412;51.400;7.480;2022-12-07T01:34:51;9.00;99.90
851;DHT22;412;51.400;7.480;2022-12-07T01:37:16;9.00;99.90
851;DHT22;412;51.400;7.480;2022-12-07T01:39:42;9.00;99.90
851;DHT22;412;51.400;7.480;2022-12-07T01:42:11;9.00;99.90
851;DHT22;412;51.400;7.480;2022-12-07T01:47:41;9.00;99.90
851;DHT22;412;51.400;7.480;2022-12-07T01:50:08;9.00;99.90
851;DHT22;412;51.400;7.480;2022-12-07T01:52:35;9.00;99.90
851;DHT22;412;51.400;7.480;2022-12-07T01:55:06;9.00;99.90
851;DHT22;412;51.400;7.480;2022-12-07T01:57:33;8.90;99.90
851;DHT22;412;51.400;7.480;2022-12-07T02:00:00;8.90;99.90
851;DHT22;412;51.400;7.480;2022-12-07T02:02:30;8.80;99.90
851;DHT22;412;51.400;7.480;2022-12-07T02:05:00;8.90;99.90
851;DHT22;412;51.400;7.480;2022-12-07T02:07:28;9.00;99.90
851;DHT22;412;51.400;7.480;2022-12-07T02:09:54;8.90;99.90
851;DHT22;412;51.400;7.480;2022-12-07T02:12:20;8.90;99.90
851;DHT22;412;51.400;7.480;2022-12-07T02:14:48;8.90;99.90
851;DHT22;412;51.400;7.480;2022-12-07T02:17:32;8.90;99.90
851;DHT22;412;51.400;7.480;2022-12-07T02:20:09;9.00;99.90
851;DHT22;412;51.400;7.480;2022-12-07T02:23:21;9.00;99.90
851;DHT22;412;51.400;7.480;2022-12-07T02:28:35;8.90;99.90
851;DHT22;412;51.400;7.480;2022-12-07T02:31:11;9.00;99.90
851;DHT22;412;51.400;7.480;2022-12-07T02:33:57;9.00;99.90
851;DHT22;412;51.400;7.480;2022-12-07T02:36:31;9.00;99.90
851;DHT22;412;51.400;7.480;2022-12-07T02:39:06;9.10;99.90
851;DHT22;412;51.400;7.480;2022-12-07T02:41:38;8.90;99.90
851;DHT22;412;51.400;7.480;2022-12-07T02:44:09;8.90;99.90
851;DHT22;412;51.400;7.480;2022-12-07T02:46:40;8.90;99.90
851;DHT22;412;51.400;7.480;2022-12-07T02:49:06;8.90;99.90
851;DHT22;412;51.400;7.480;2022-12-07T02:51:33;9.00;99.90
851;DHT22;412;51.400;7.480;2022-12-07T02:54:00;9.00;99.90
851;DHT22;412;51.400;7.480;2022-12-07T02:59:31;9.00;99.90
851;DHT22;412;51.400;7.480;2022-12-07T03:04:58;9.00;99.90
851;DHT22;412;51.400;7.480;2022-12-07T03:16:17;9.00;99.90
851;DHT22;412;51.400;7.480;2022-12-07T03:18:55;9.00;99.90
851;DHT22;412;51.400;7.480;2022-12-07T03:21:28;9.00;99.90
851;DHT22;412;51.400;7.480;2022-12-07T03:23:59;9.00;99.90
851;DHT22;412;51.400;7.480;2022-12-07T03:26:38;9.00;99.90
851;DHT22;412;51.400;7.480;2022-12-07T03:29:43;9.00;99.90
851;DHT22;412;51.400;7.480;2022-12-07T03:32:23;9.00;99.90
851;DHT22;412;51.400;7.480;2022-12-07T03:34:58;9.00;99.90
851;DHT22;412;51.400;7.480;2022-12-07T03:37:33;9.00;99.90
851;DHT22;412;51.400;7.480;2022-12-07T03:42:43;8.90;99.90
851;DHT22;412;51.400;7.480;2022-12-07T03:45:10;8.90;99.90
851;DHT22;412;51.400;7.480;2022-12-07T03:48:05;8.80;99.90
851;DHT22;412;51.400;7.480;2022-12-07T03:50:50;8.80;99.90
851;DHT22;412;51.400;7.480;2022-12-07T03:53:18;8.80;99.90
851;DHT22;412;51.400;7.480;2022-12-07T03:55:46;8.80;99.90
851;DHT22;412;51.400;7.480;2022-12-07T03:58:17;8.80;99.90
851;DHT22;412;51.400;7.480;2022-12-07T04:00:44;8.80;99.90
851;DHT22;412;51.400;7.480;2022-12-07T04:03:11;8.80;99.90
851;DHT22;412;51.400;7.480;2022-12-07T04:05:37;8.80;99.90
851;DHT22;412;51.400;7.480;2022-12-07T04:08:04;8.80;99.90
851;DHT22;412;51.400;7.480;2022-12-07T04:10:29;8.80;99.90
851;DHT22;412;51.400;7.480;2022-12-07T04:12:55;8.70;99.90
851;DHT22;412;51.400;7.480;2022-12-07T04:15:21;8.70;99.90
851;DHT22;412;51.400;7.480;2022-12-07T04:17:47;8.70;99.90
851;DHT22;412;51.400;7.480;2022-12-07T04:20:13;8.70;99.90
851;DHT22;412;51.400;7.480;2022-12-07T04:22:39;8.60;99.90
851;DHT22;412;51.400;7.480;2022-12-07T04:25:05;8.60;99.90
851;DHT22;412;51.400;7.480;2022-12-07T04:27:31;8.60;99.90
851;DHT22;412;51.400;7.480;2022-12-07T04:29:56;8.60;99.90
851;DHT22;412;51.400;7.480;2022-12-07T04:32:23;8.60;99.90
851;DHT22;412;51.400;7.480;2022-12-07T04:34:48;8.70;99.90
851;DHT22;412;51.400;7.480;2022-12-07T04:37:14;8.60;99.90
851;DHT22;412;51.400;7.480;2022-12-07T04:39:40;8.60;99.90
851;DHT22;412;51.400;7.480;2022-12-07T04:42:05;8.70;99.90
851;DHT22;412;51.400;7.480;2022-12-07T04:44:31;8.60;99.90
851;DHT22;412;51.400;7.480;2022-12-07T04:46:57;8.60;99.90
851;DHT22;412;51.400;7.480;2022-12-07T04:49:24;8.60;99.90
851;DHT22;412;51.400;7.480;2022-12-07T04:51:49;8.60;99.90
851;DHT22;412;51.400;7.480;2022-12-07T04:54:16;8.60;99.90
851;DHT22;412;51.400;7.480;2022-12-07T04:56:42;8.60;99.90
851;DHT22;412;51.400;7.480;2022-12-07T04:59:10;8.70;99.90
851;DHT22;412;51.400;7.480;2022-12-07T05:01:36;8.70;99.90
851;DHT22;412;51.400;7.480;2022-12-07T05:04:02;8.70;99.90
851;DHT22;412;51.400;7.480;2022-12-07T05:06:28;8.70;99.90
851;DHT22;412;51.400;7.480;2022-12-07T05:08:54;8.70;99.90
851;DHT22;412;51.400;7.480;2022-12-07T05:11:19;8.70;99.90
851;DHT22;412;51.400;7.480;2022-12-07T05:14:05;8.70;99.90
851;DHT22;412;51.400;7.480;2022-12-07T05:16:32;8.60;99.90
851;DHT22;412;51.400;7.480;2022-12-07T05:18:58;8.60;99.90
851;DHT22;412;51.400;7.480;2022-12-07T05:21:24;8.70;99.90
851;DHT22;412;51.400;7.480;2022-12-07T05:23:50;8.60;99.90
851;DHT22;412;51.400;7.480;2022-12-07T05:26:16;8.70;99.90
851;DHT22;412;51.400;7.480;2022-12-07T05:28:42;8.60;99.90
851;DHT22;412;51.400;7.480;2022-12-07T05:31:07;8.70;99.90
851;DHT22;412;51.400;7.480;2022-12-07T05:33:33;8.60;99.90
851;DHT22;412;51.400;7.480;2022-12-07T05:35:59;8.70;99.90
851;DHT22;412;51.400;7.480;2022-12-07T05:38:31;8.70;99.90
851;DHT22;412;51.400;7.480;2022-12-07T05:41:01;8.80;99.90
851;DHT22;412;51.400;7.480;2022-12-07T05:43:28;8.70;99.90
851;DHT22;412;51.400;7.480;2022-12-07T05:45:54;8.60;99.90
851;DHT22;412;51.400;7.480;2022-12-07T05:48:20;8.70;99.90
851;DHT22;412;51.400;7.480;2022-12-07T05:50:48;8.70;99.90
851;DHT22;412;51.400;7.480;2022-12-07T05:53:14;8.70;99.90
851;DHT22;412;51.400;7.480;2022-12-07T05:55:40;8.70;99.90
851;DHT22;412;51.400;7.480;2022-12-07T05:58:05;8.60;99.90
851;DHT22;412;51.400;7.480;2022-12-07T06:00:49;8.70;99.90
851;DHT22;412;51.400;7.480;2022-12-07T06:03:15;8.70;99.90
851;DHT22;412;51.400;7.480;2022-12-07T06:05:41;8.70;99.90
851;DHT22;412;51.400;7.480;2022-12-07T06:08:07;8.60;99.90
851;DHT22;412;51.400;7.480;2022-12-07T06:10:33;8.60;99.90
851;DHT22;412;51.400;7.480;2022-12-07T06:12:58;8.60;99.90
851;DHT22;412;51.400;7.480;2022-12-07T06:15:24;8.60;99.90
851;DHT22;412;51.400;7.480;2022-12-07T06:17:50;8.60;99.90
851;DHT22;412;51.400;7.480;2022-12-07T06:20:15;8.50;99.90
851;DHT22;412;51.400;7.480;2022-12-07T06:22:41;8.50;99.90
851;DHT22;412;51.400;7.480;2022-12-07T06:25:07;8.50;99.90
851;DHT22;412;51.400;7.480;2022-12-07T06:27:33;8.40;99.90
851;DHT22;412;51.400;7.480;2022-12-07T06:29:59;8.50;99.90
851;DHT22;412;51.400;7.480;2022-12-07T06:32:25;8.50;99.90
851;DHT22;412;51.400;7.480;2022-12-07T06:34:50;8.50;99.90
851;DHT22;412;51.400;7.480;2022-12-07T06:37:16;8.50;99.90
851;DHT22;412;51.400;7.480;2022-12-07T06:39:42;8.50;99.90
851;DHT22;412;51.400;7.480;2022-12-07T06:42:08;8.50;99.90
851;DHT22;412;51.400;7.480;2022-12-07T06:44:34;8.50;99.90
851;DHT22;412;51.400;7.480;2022-12-07T06:46:59;8.50;99.90
851;DHT22;412;51.400;7.480;2022-12-07T06:49:25;8.40;99.90
851;DHT22;412;51.400;7.480;2022-12-07T06:51:51;8.40;99.90
851;DHT22;412;51.400;7.480;2022-12-07T06:54:17;8.40;99.90
851;DHT22;412;51.400;7.480;2022-12-07T06:56:43;8.40;99.90
851;DHT22;412;51.400;7.480;2022-12-07T06:59:09;8.40;99.90
851;DHT22;412;51.400;7.480;2022-12-07T07:01:35;8.30;99.90
851;DHT22;412;51.400;7.480;2022-12-07T07:04:02;8.30;99.90
851;DHT22;412;51.400;7.480;2022-12-07T07:06:27;8.40;99.90
851;DHT22;412;51.400;7.480;2022-12-07T07:08:53;8.30;99.90
851;DHT22;412;51.400;7.480;2022-12-07T07:11:19;8.40;99.90
851;DHT22;412;51.400;7.480;2022-12-07T07:13:45;8.30;99.90
851;DHT22;412;51.400;7.480;2022-12-07T07:16:11;8.40;99.90
851;DHT22;412;51.400;7.480;2022-12-07T07:18:37;8.30;99.90
851;DHT22;412;51.400;7.480;2022-12-07T07:21:03;8.40;99.90
851;DHT22;412;51.400;7.480;2022-12-07T07:23:28;8.40;99.90
851;DHT22;412;51.400;7.480;2022-12-07T07:25:55;8.40;99.90
851;DHT22;412;51.400;7.480;2022-12-07T07:28:20;8.30;99.90
851;DHT22;412;51.400;7.480;2022-12-07T07:30:46;8.40;99.90
851;DHT22;412;51.400;7.480;2022-12-07T07:33:12;8.30;99.90
851;DHT22;412;51.400;7.480;2022-12-07T07:35:38;8.30;99.90
851;DHT22;412;51.400;7.480;2022-12-07T07:38:04;8.30;99.90
851;DHT22;412;51.400;7.480;2022-12-07T07:40:30;8.30;99.90
851;DHT22;412;51.400;7.480;2022-12-07T07:42:56;8.30;99.90
851;DHT22;412;51.400;7.480;2022-12-07T07:45:23;8.30;99.90
851;DHT22;412;51.400;7.480;2022-12-07T07:47:50;8.30;99.90
851;DHT22;412;51.400;7.480;2022-12-07T07:50:16;8.30;99.90
851;DHT22;412;51.400;7.480;2022-12-07T07:52:42;8.30;99.90
851;DHT22;412;51.400;7.480;2022-12-07T07:55:09;8.20;99.90
851;DHT22;412;51.400;7.480;2022-12-07T07:57:36;8.20;99.90
851;DHT22;412;51.400;7.480;2022-12-07T08:00:07;8.20;99.90
851;DHT22;412;51.400;7.480;2022-12-07T08:02:33;8.30;99.90
851;DHT22;412;51.400;7.480;2022-12-07T08:04:59;8.30;99.90
851;DHT22;412;51.400;7.480;2022-12-07T08:07:25;8.30;99.90
851;DHT22;412;51.400;7.480;2022-12-07T08:09:52;8.30;99.90
851;DHT22;412;51.400;7.480;2022-12-07T08:12:17;8.20;99.90
851;DHT22;412;51.400;7.480;2022-12-07T08:14:43;8.30;99.90
851;DHT22;412;51.400;7.480;2022-12-07T08:17:09;8.20;99.90
851;DHT22;412;51.400;7.480;2022-12-07T08:19:34;8.20;99.90
851;DHT22;412;51.400;7.480;2022-12-07T08:22:00;8.60;99.90
851;DHT22;412;51.400;7.480;2022-12-07T08:24:26;9.40;99.90
851;DHT22;412;51.400;7.480;2022-12-07T08:26:52;10.10;99.90
851;DHT22;412;51.400;7.480;2022-12-07T08:29:18;10.70;99.90
851;DHT22;412;51.400;7.480;2022-12-07T08:31:43;11.10;99.90
851;DHT22;412;51.400;7.480;2022-12-07T08:34:11;11.60;99.90
851;DHT22;412;51.400;7.480;2022-12-07T08:36:37;12.10;99.90
851;DHT22;412;51.400;7.480;2022-12-07T08:39:03;12.40;99.90
851;DHT22;412;51.400;7.480;2022-12-07T08:41:29;12.70;99.90
851;DHT22;412;51.400;7.480;2022-12-07T08:43:55;13.00;99.90
851;DHT22;412;51.400;7.480;2022-12-07T08:46:35;13.30;99.90
851;DHT22;412;51.400;7.480;2022-12-07T08:51:35;13.60;99.90
851;DHT22;412;51.400;7.480;2022-12-07T08:54:04;13.80;99.90
851;DHT22;412;51.400;7.480;2022-12-07T08:56:30;13.80;99.90
851;DHT22;412;51.400;7.480;2022-12-07T08:58:56;14.00;99.90
851;DHT22;412;51.400;7.480;2022-12-07T09:01:22;14.10;99.90
851;DHT22;412;51.400;7.480;2022-12-07T09:03:48;14.10;99.90
851;DHT22;412;51.400;7.480;2022-12-07T09:06:14;14.30;99.90
851;DHT22;412;51.400;7.480;2022-12-07T09:08:43;14.30;99.70
851;DHT22;412;51.400;7.480;2022-12-07T09:11:10;14.40;99.10
851;DHT22;412;51.400;7.480;2022-12-07T09:13:36;14.40;99.60
851;DHT22;412;51.400;7.480;2022-12-07T09:16:02;14.50;99.00
851;DHT22;412;51.400;7.480;2022-12-07T09:18:27;14.50;97.50
851;DHT22;412;51.400;7.480;2022-12-07T09:20:53;14.60;99.90
851;DHT22;412;51.400;7.480;2022-12-07T09:23:19;14.60;99.90
851;DHT22;412;51.400;7.480;2022-12-07T09:25:45;14.60;99.40
851;DHT22;412;51.400;7.480;2022-12-07T09:28:10;14.60;98.20
851;DHT22;412;51.400;7.480;2022-12-07T09:30:36;14.60;99.00
851;DHT22;412;51.400;7.480;2022-12-07T09:33:02;14.70;98.90
851;DHT22;412;51.400;7.480;2022-12-07T09:35:27;14.80;97.50
851;DHT22;412;51.400;7.480;2022-12-07T09:37:53;14.80;97.10
851;DHT22;412;51.400;7.480;2022-12-07T09:40:21;14.80;98.90
851;DHT22;412;51.400;7.480;2022-12-07T09:42:51;14.80;99.90
851;DHT22;412;51.400;7.480;2022-12-07T09:45:22;14.90;99.90
851;DHT22;412;51.400;7.480;2022-12-07T09:47:49;15.10;99.90
851;DHT22;412;51.400;7.480;2022-12-07T09:50:24;15.10;99.90
851;DHT22;412;51.400;7.480;2022-12-07T09:52:52;15.20;99.90
851;DHT22;412;51.400;7.480;2022-12-07T09:55:28;15.20;99.90
851;DHT22;412;51.400;7.480;2022-12-07T09:57:55;15.20;98.70
851;DHT22;412;51.400;7.480;2022-12-07T10:00:22;15.20;99.60
851;DHT22;412;51.400;7.480;2022-12-07T10:02:57;15.10;95.50
851;DHT22;412;51.400;7.480;2022-12-07T10:05:38;15.10;96.80
851;DHT22;412;51.400;7.480;2022-12-07T10:08:09;15.00;99.90
851;DHT22;412;51.400;7.480;2022-12-07T10:10:36;15.00;99.10
851;DHT22;412;51.400;7.480;2022-12-07T10:13:10;15.10;97.90
851;DHT22;412;51.400;7.480;2022-12-07T10:15:52;15.00;96.50
851;DHT22;412;51.400;7.480;2022-12-07T10:18:28;15.00;98.00
851;DHT22;412;51.400;7.480;2022-12-07T10:21:14;15.00;97.30
851;DHT22;412;51.400;7.480;2022-12-07T10:24:03;15.00;98.10
851;DHT22;412;51.400;7.480;2022-12-07T10:26:40;15.00;99.90
851;DHT22;412;51.400;7.480;2022-12-07T10:31:42;14.90;96.40
851;DHT22;412;51.400;7.480;2022-12-07T10:34:32;14.90;99.90
851;DHT22;412;51.400;7.480;2022-12-07T10:39:47;15.30;99.90
851;DHT22;412;51.400;7.480;2022-12-07T10:42:28;15.00;94.30
851;DHT22;412;51.400;7.480;2022-12-07T10:45:15;14.50;90.80
851;DHT22;412;51.400;7.480;2022-12-07T10:50:52;13.30;91.50
851;DHT22;412;51.400;7.480;2022-12-07T10:59:23;12.20;96.20
851;DHT22;412;51.400;7.480;2022-12-07T11:05:00;11.70;97.60
851;DHT22;412;51.400;7.480;2022-12-07T11:15:51;10.80;99.90
851;DHT22;412;51.400;7.480;2022-12-07T11:18:24;10.60;99.90
851;DHT22;412;51.400;7.480;2022-12-07T11:26:58;10.10;99.90
851;DHT22;412;51.400;7.480;2022-12-07T11:35:24;9.90;99.90
851;DHT22;412;51.400;7.480;2022-12-07T11:37:59;9.90;99.90
851;DHT22;412;51.400;7.480;2022-12-07T11:40:33;9.80;99.90
851;DHT22;412;51.400;7.480;2022-12-07T11:43:28;9.80;99.90
851;DHT22;412;51.400;7.480;2022-12-07T11:46:05;9.70;99.90
851;DHT22;412;51.400;7.480;2022-12-07T11:48:50;9.70;99.90
851;DHT22;412;51.400;7.480;2022-12-07T11:51:20;9.70;99.90
851;DHT22;412;51.400;7.480;2022-12-07T11:53:53;9.60;99.90
851;DHT22;412;51.400;7.480;2022-12-07T11:56:26;9.60;99.90
851;DHT22;412;51.400;7.480;2022-12-07T11:59:10;9.60;99.90
851;DHT22;412;51.400;7.480;2022-12-07T12:06:43;9.50;99.90
851;DHT22;412;51.400;7.480;2022-12-07T12:09:31;9.50;99.90
851;DHT22;412;51.400;7.480;2022-12-07T12:12:22;9.50;99.90
851;DHT22;412;51.400;7.480;2022-12-07T12:17:39;9.50;99.90
851;DHT22;412;51.400;7.480;2022-12-07T12:20:23;9.50;99.90
851;DHT22;412;51.400;7.480;2022-12-07T12:25:35;9.60;99.90
851;DHT22;412;51.400;7.480;2022-12-07T12:28:03;9.60;99.90
851;DHT22;412;51.400;7.480;2022-12-07T12:30:38;9.60;99.90
851;DHT22;412;51.400;7.480;2022-12-07T12:35:36;9.50;99.90
851;DHT22;412;51.400;7.480;2022-12-07T12:51:56;9.40;99.90
851;DHT22;412;51.400;7.480;2022-12-07T12:54:24;9.40;99.90
851;DHT22;412;51.400;7.480;2022-12-07T12:57:17;9.40;99.90
851;DHT22;412;51.400;7.480;2022-12-07T13:02:37;9.30;99.90
851;DHT22;412;51.400;7.480;2022-12-07T13:10:44;9.30;99.90
851;DHT22;412;51.400;7.480;2022-12-07T13:26:34;9.20;99.90
851;DHT22;412;51.400;7.480;2022-12-07T13:31:52;9.20;99.90
851;DHT22;412;51.400;7.480;2022-12-07T13:34:39;9.20;99.90
851;DHT22;412;51.400;7.480;2022-12-07T13:37:26;9.20;99.90
851;DHT22;412;51.400;7.480;2022-12-07T13:39:57;9.20;99.90
851;DHT22;412;51.400;7.480;2022-12-07T13:42:29;9.20;99.90
851;DHT22;412;51.400;7.480;2022-12-07T13:44:56;9.30;99.90
851;DHT22;412;51.400;7.480;2022-12-07T13:47:44;9.20;99.90
851;DHT22;412;51.400;7.480;2022-12-07T13:50:29;9.20;99.90
851;DHT22;412;51.400;7.480;2022-12-07T13:52:56;9.20;99.90
851;DHT22;412;51.400;7.480;2022-12-07T13:55:23;9.30;99.90
851;DHT22;412;51.400;7.480;2022-12-07T13:57:53;9.30;99.90
851;DHT22;412;51.400;7.480;2022-12-07T14:00:23;9.30;99.90
851;DHT22;412;51.400;7.480;2022-12-07T14:05:42;9.30;99.90
851;DHT22;412;51.400;7.480;2022-12-07T14:13:36;9.40;99.90
851;DHT22;412;51.400;7.480;2022-12-07T14:16:22;9.40;99.90
851;DHT22;412;51.400;7.480;2022-12-07T14:18:49;9.40;99.90
851;DHT22;412;51.400;7.480;2022-12-07T14:21:23;9.30;99.90
851;DHT22;412;51.400;7.480;2022-12-07T14:26:38;9.40;99.90
851;DHT22;412;51.400;7.480;2022-12-07T14:31:57;9.30;99.90
851;DHT22;412;51.400;7.480;2022-12-07T14:34:24;9.30;99.90
851;DHT22;412;51.400;7.480;2022-12-07T14:36:50;9.30;99.90
851;DHT22;412;51.400;7.480;2022-12-07T14:39:16;9.30;99.90
851;DHT22;412;51.400;7.480;2022-12-07T14:41:42;9.30;99.90
851;DHT22;412;51.400;7.480;2022-12-07T14:44:18;9.30;99.90
851;DHT22;412;51.400;7.480;2022-12-07T14:46:45;9.20;99.90
851;DHT22;412;51.400;7.480;2022-12-07T14:49:10;9.00;99.90
851;DHT22;412;51.400;7.480;2022-12-07T14:51:38;9.00;99.90
851;DHT22;412;51.400;7.480;2022-12-07T14:54:12;8.90;99.90
851;DHT22;412;51.400;7.480;2022-12-07T14:56:39;8.80;99.90
851;DHT22;412;51.400;7.480;2022-12-07T14:59:05;8.80;99.90
851;DHT22;412;51.400;7.480;2022-12-07T15:01:30;8.70;99.90
851;DHT22;412;51.400;7.480;2022-12-07T15:03:56;8.70;99.90
851;DHT22;412;51.400;7.480;2022-12-07T15:06:22;8.60;99.90
851;DHT22;412;51.400;7.480;2022-12-07T15:08:48;8.70;99.90
851;DHT22;412;51.400;7.480;2022-12-07T15:11:15;8.50;99.90
851;DHT22;412;51.400;7.480;2022-12-07T15:13:41;8.50;99.90
851;DHT22;412;51.400;7.480;2022-12-07T15:16:25;8.50;99.90
851;DHT22;412;51.400;7.480;2022-12-07T15:18:50;8.50;99.90
851;DHT22;412;51.400;7.480;2022-12-07T15:21:17;8.40;99.90
851;DHT22;412;51.400;7.480;2022-12-07T15:23:46;8.40;99.90
851;DHT22;412;51.400;7.480;2022-12-07T15:26:12;8.30;99.90
851;DHT22;412;51.400;7.480;2022-12-07T15:28:39;8.30;99.90
851;DHT22;412;51.400;7.480;2022-12-07T15:31:14;8.40;99.90
851;DHT22;412;51.400;7.480;2022-12-07T15:33:41;8.30;99.90
851;DHT22;412;51.400;7.480;2022-12-07T15:36:07;8.30;99.90
851;DHT22;412;51.400;7.480;2022-12-07T15:38:33;8.30;99.90
851;DHT22;412;51.400;7.480;2022-12-07T15:40:58;8.30;99.90
851;DHT22;412;51.400;7.480;2022-12-07T15:43:24;8.30;99.90
851;DHT22;412;51.400;7.480;2022-12-07T15:46:08;8.30;99.90
851;DHT22;412;51.400;7.480;2022-12-07T15:48:34;8.30;99.90
851;DHT22;412;51.400;7.480;2022-12-07T15:51:04;8.40;99.90
851;DHT22;412;51.400;7.480;2022-12-07T15:53:31;8.50;99.90
851;DHT22;412;51.400;7.480;2022-12-07T15:55:56;8.60;99.90
851;DHT22;412;51.400;7.480;2022-12-07T15:58:22;8.70;99.90
851;DHT22;412;51.400;7.480;2022-12-07T16:00:48;8.90;99.90
851;DHT22;412;51.400;7.480;2022-12-07T16:03:14;8.90;99.90
851;DHT22;412;51.400;7.480;2022-12-07T16:05:39;9.10;99.90
851;DHT22;412;51.400;7.480;2022-12-07T16:08:05;9.10;99.90
851;DHT22;412;51.400;7.480;2022-12-07T16:10:31;9.10;99.90
851;DHT22;412;51.400;7.480;2022-12-07T16:12:57;9.20;99.90
851;DHT22;412;51.400;7.480;2022-12-07T16:15:22;9.20;99.90
851;DHT22;412;51.400;7.480;2022-12-07T16:17:50;9.30;99.90
851;DHT22;412;51.400;7.480;2022-12-07T16:20:16;9.40;99.90
851;DHT22;412;51.400;7.480;2022-12-07T16:22:42;9.40;99.90
851;DHT22;412;51.400;7.480;2022-12-07T16:25:08;9.50;99.90
851;DHT22;412;51.400;7.480;2022-12-07T16:27:34;9.50;99.90
851;DHT22;412;51.400;7.480;2022-12-07T16:30:00;9.60;99.90
851;DHT22;412;51.400;7.480;2022-12-07T16:32:25;9.60;99.90
851;DHT22;412;51.400;7.480;2022-12-07T16:34:51;9.70;99.90
851;DHT22;412;51.400;7.480;2022-12-07T16:37:17;9.60;99.90
851;DHT22;412;51.400;7.480;2022-12-07T16:39:42;9.60;99.90
851;DHT22;412;51.400;7.480;2022-12-07T16:42:08;9.70;99.90
851;DHT22;412;51.400;7.480;2022-12-07T16:44:34;9.70;99.90
851;DHT22;412;51.400;7.480;2022-12-07T16:46:59;9.70;99.90
851;DHT22;412;51.400;7.480;2022-12-07T16:49:26;9.70;99.90
851;DHT22;412;51.400;7.480;2022-12-07T16:51:52;9.70;99.90
851;DHT22;412;51.400;7.480;2022-12-07T16:54:18;9.80;99.90
851;DHT22;412;51.400;7.480;2022-12-07T16:56:43;9.80;99.90
851;DHT22;412;51.400;7.480;2022-12-07T16:59:09;9.80;99.90
851;DHT22;412;51.400;7.480;2022-12-07T17:01:35;9.80;99.90
851;DHT22;412;51.400;7.480;2022-12-07T17:04:01;9.90;99.90
851;DHT22;412;51.400;7.480;2022-12-07T17:06:28;9.90;99.90
851;DHT22;412;51.400;7.480;2022-12-07T17:08:54;9.90;99.90
851;DHT22;412;51.400;7.480;2022-12-07T17:11:23;9.90;99.90
851;DHT22;412;51.400;7.480;2022-12-07T17:13:50;9.90;99.90
851;DHT22;412;51.400;7.480;2022-12-07T17:16:35;10.00;99.90
851;DHT22;412;51.400;7.480;2022-12-07T17:19:05;10.00;99.90
851;DHT22;412;51.400;7.480;2022-12-07T17:21:31;10.00;99.90
851;DHT22;412;51.400;7.480;2022-12-07T17:24:01;10.00;99.90
851;DHT22;412;51.400;7.480;2022-12-07T17:26:28;10.00;99.90
851;DHT22;412;51.400;7.480;2022-12-07T17:28:58;10.00;99.90
851;DHT22;412;51.400;7.480;2022-12-07T17:31:24;10.00;99.90
851;DHT22;412;51.400;7.480;2022-12-07T17:33:50;10.00;99.90
851;DHT22;412;51.400;7.480;2022-12-07T17:36:22;10.00;99.90
851;DHT22;412;51.400;7.480;2022-12-07T17:38:49;10.00;99.90
851;DHT22;412;51.400;7.480;2022-12-07T17:44:05;9.90;99.90
851;DHT22;412;51.400;7.480;2022-12-07T17:46:31;9.90;99.90
851;DHT22;412;51.400;7.480;2022-12-07T17:48:58;9.90;99.90
851;DHT22;412;51.400;7.480;2022-12-07T17:51:24;9.90;99.90
851;DHT22;412;51.400;7.480;2022-12-07T17:54:09;10.00;99.90
851;DHT22;412;51.400;7.480;2022-12-07T17:56:35;9.90;99.90
851;DHT22;412;51.400;7.480;2022-12-07T17:59:01;9.90;99.90
851;DHT22;412;51.400;7.480;2022-12-07T18:01:27;9.80;99.90
851;DHT22;412;51.400;7.480;2022-12-07T18:03:53;9.70;99.90
851;DHT22;412;51.400;7.480;2022-12-07T18:06:19;9.70;99.90
851;DHT22;412;51.400;7.480;2022-12-07T18:08:44;9.60;99.90
851;DHT22;412;51.400;7.480;2022-12-07T18:11:10;9.50;99.90
851;DHT22;412;51.400;7.480;2022-12-07T18:13:36;9.40;99.90
851;DHT22;412;51.400;7.480;2022-12-07T18:18:32;9.30;99.90
851;DHT22;412;51.400;7.480;2022-12-07T18:20:57;9.20;99.90
851;DHT22;412;51.400;7.480;2022-12-07T18:23:26;9.20;99.90
851;DHT22;412;51.400;7.480;2022-12-07T18:25:52;9.20;99.90
851;DHT22;412;51.400;7.480;2022-12-07T18:28:18;9.10;99.90
851;DHT22;412;51.400;7.480;2022-12-07T18:30:45;9.10;99.90
851;DHT22;412;51.400;7.480;2022-12-07T18:33:17;9.10;99.90
851;DHT22;412;51.400;7.480;2022-12-07T18:35:43;9.00;99.90
851;DHT22;412;51.400;7.480;2022-12-07T18:38:09;9.00;99.90
851;DHT22;412;51.400;7.480;2022-12-07T18:40:38;9.10;99.90
851;DHT22;412;51.400;7.480;2022-12-07T18:43:05;9.00;99.90
851;DHT22;412;51.400;7.480;2022-12-07T18:45:34;8.90;99.90
851;DHT22;412;51.400;7.480;2022-12-07T18:48:01;8.90;99.90
851;DHT22;412;51.400;7.480;2022-12-07T18:50:26;8.90;99.90
851;DHT22;412;51.400;7.480;2022-12-07T18:52:52;8.90;99.90
851;DHT22;412;51.400;7.480;2022-12-07T18:55:18;8.80;99.90
851;DHT22;412;51.400;7.480;2022-12-07T18:57:44;8.80;99.90
851;DHT22;412;51.400;7.480;2022-12-07T19:00:10;8.80;99.90
851;DHT22;412;51.400;7.480;2022-12-07T19:02:36;8.80;99.90
851;DHT22;412;51.400;7.480;2022-12-07T19:05:02;8.80;99.90
851;DHT22;412;51.400;7.480;2022-12-07T19:07:28;8.80;99.90
851;DHT22;412;51.400;7.480;2022-12-07T19:09:54;8.80;99.90
851;DHT22;412;51.400;7.480;2022-12-07T19:12:20;8.70;99.90
851;DHT22;412;51.400;7.480;2022-12-07T19:14:45;8.70;99.90